sensor_id;sensor_type;location;lat;lon;timestamp;P1;durP1;ratioP1;P2;durP2;ratioP2
64885;SDS011;51514;52.206;5.114;2023-03-23T00:01:05;15.38;;;6.43;;
64885;SDS011;51514;52.206;5.114;2023-03-23T00:03:34;9.50;;;6.70;;
64885;SDS011;51514;52.206;5.114;2023-03-23T00:06:00;10.02;;;5.70;;
64885;SDS011;51514;52.206;5.114;2023-03-23T00:08:33;8.35;;;5.32;;
64885;SDS011;51514;52.206;5.114;2023-03-23T00:11:02;10.68;;;5.78;;
64885;SDS011;51514;52.206;5.114;2023-03-23T00:13:30;13.88;;;5.65;;
64885;SDS011;51514;52.206;5.114;2023-03-23T00:15:57;7.97;;;5.53;;
64885;SDS011;51514;52.206;5.114;2023-03-23T00:18:24;12.00;;;5.55;;
64885;SDS011;51514;52.206;5.114;2023-03-23T00:20:50;12.45;;;5.38;;
64885;SDS011;51514;52.206;5.114;2023-03-23T00:23:17;8.88;;;5.38;;
64885;SDS011;51514;52.206;5.114;2023-03-23T00:25:45;8.77;;;5.15;;
64885;SDS011;51514;52.206;5.114;2023-03-23T00:28:11;9.02;;;5.10;;
64885;SDS011;51514;52.206;5.114;2023-03-23T00:30:38;11.20;;;5.28;;
64885;SDS011;51514;52.206;5.114;2023-03-23T00:33:04;10.27;;;4.88;;
64885;SDS011;51514;52.206;5.114;2023-03-23T00:35:29;7.68;;;4.97;;
64885;SDS011;51514;52.206;5.114;2023-03-23T00:37:55;8.13;;;4.38;;
64885;SDS011;51514;52.206;5.114;2023-03-23T00:40:21;7.53;;;4.60;;
64885;SDS011;51514;52.206;5.114;2023-03-23T00:42:47;10.32;;;5.18;;
64885;SDS011;51514;52.206;5.114;2023-03-23T00:45:13;8.23;;;4.80;;
64885;SDS011;51514;52.206;5.114;2023-03-23T00:47:39;11.02;;;4.85;;
64885;SDS011;51514;52.206;5.114;2023-03-23T00:50:06;12.55;;;5.90;;
64885;SDS011;51514;52.206;5.114;2023-03-23T00:52:32;11.27;;;4.80;;
64885;SDS011;51514;52.206;5.114;2023-03-23T00:54:58;7.75;;;4.78;;
64885;SDS011;51514;52.206;5.114;2023-03-23T00:57:23;11.68;;;5.03;;
64885;SDS011;51514;52.206;5.114;2023-03-23T00:59:51;10.90;;;5.05;;
64885;SDS011;51514;52.206;5.114;2023-03-23T01:02:17;8.93;;;4.70;;
64885;SDS011;51514;52.206;5.114;2023-03-23T01:04:43;10.85;;;4.45;;
64885;SDS011;51514;52.206;5.114;2023-03-23T01:07:09;9.80;;;4.57;;
64885;SDS011;51514;52.206;5.114;2023-03-23T01:09:37;8.38;;;4.85;;
64885;SDS011;51514;52.206;5.114;2023-03-23T01:12:10;8.82;;;4.82;;
64885;SDS011;51514;52.206;5.114;2023-03-23T01:14:36;12.10;;;4.90;;
64885;SDS011;51514;52.206;5.114;2023-03-23T01:17:01;8.77;;;4.78;;
64885;SDS011;51514;52.206;5.114;2023-03-23T01:19:27;9.32;;;4.70;;
64885;SDS011;51514;52.206;5.114;2023-03-23T01:21:52;11.32;;;4.13;;
64885;SDS011;51514;52.206;5.114;2023-03-23T01:24:17;7.60;;;3.92;;
64885;SDS011;51514;52.206;5.114;2023-03-23T01:26:43;7.80;;;4.13;;
64885;SDS011;51514;52.206;5.114;2023-03-23T01:29:08;7.00;;;4.22;;
64885;SDS011;51514;52.206;5.114;2023-03-23T01:31:33;7.25;;;4.68;;
64885;SDS011;51514;52.206;5.114;2023-03-23T01:34:01;6.63;;;4.18;;
64885;SDS011;51514;52.206;5.114;2023-03-23T01:36:28;10.23;;;3.97;;
64885;SDS011;51514;52.206;5.114;2023-03-23T01:38:57;7.80;;;3.88;;
64885;SDS011;51514;52.206;5.114;2023-03-23T01:41:24;11.25;;;4.07;;
64885;SDS011;51514;52.206;5.114;2023-03-23T01:43:57;8.82;;;4.10;;
64885;SDS011;51514;52.206;5.114;2023-03-23T01:46:24;7.50;;;4.10;;
64885;SDS011;51514;52.206;5.114;2023-03-23T01:48:51;15.48;;;4.32;;
64885;SDS011;51514;52.206;5.114;2023-03-23T01:51:17;6.65;;;4.28;;
64885;SDS011;51514;52.206;5.114;2023-03-23T01:53:45;8.20;;;4.20;;
64885;SDS011;51514;52.206;5.114;2023-03-23T01:56:13;7.72;;;3.88;;
64885;SDS011;51514;52.206;5.114;2023-03-23T01:58:41;4.87;;;3.60;;
64885;SDS011;51514;52.206;5.114;2023-03-23T02:01:09;6.95;;;3.85;;
64885;SDS011;51514;52.206;5.114;2023-03-23T02:03:37;8.57;;;4.25;;
64885;SDS011;51514;52.206;5.114;2023-03-23T02:06:05;6.80;;;4.22;;
64885;SDS011;51514;52.206;5.114;2023-03-23T02:08:31;7.25;;;4.28;;
64885;SDS011;51514;52.206;5.114;2023-03-23T02:10:58;7.25;;;4.00;;
64885;SDS011;51514;52.206;5.114;2023-03-23T02:13:24;6.10;;;3.47;;
64885;SDS011;51514;52.206;5.114;2023-03-23T02:16:03;13.10;;;4.45;;
64885;SDS011;51514;52.206;5.114;2023-03-23T02:21:14;6.72;;;3.58;;
64885;SDS011;51514;52.206;5.114;2023-03-23T02:29:41;5.97;;;3.50;;
64885;SDS011;51514;52.206;5.114;2023-03-23T02:35:43;8.75;;;5.00;;
64885;SDS011;51514;52.206;5.114;2023-03-23T02:38:14;6.25;;;4.03;;
64885;SDS011;51514;52.206;5.114;2023-03-23T02:40:43;6.65;;;3.50;;
64885;SDS011;51514;52.206;5.114;2023-03-23T02:43:14;11.38;;;4.30;;
64885;SDS011;51514;52.206;5.114;2023-03-23T02:45:43;8.93;;;4.05;;
64885;SDS011;51514;52.206;5.114;2023-03-23T02:48:10;5.70;;;3.47;;
64885;SDS011;51514;52.206;5.114;2023-03-23T02:50:39;9.10;;;4.10;;
64885;SDS011;51514;52.206;5.114;2023-03-23T02:53:09;7.40;;;3.55;;
64885;SDS011;51514;52.206;5.114;2023-03-23T02:55:37;10.18;;;4.13;;
64885;SDS011;51514;52.206;5.114;2023-03-23T02:58:07;6.82;;;4.03;;
64885;SDS011;51514;52.206;5.114;2023-03-23T03:00:36;6.22;;;3.50;;
64885;SDS011;51514;52.206;5.114;2023-03-23T03:03:02;6.15;;;3.35;;
64885;SDS011;51514;52.206;5.114;2023-03-23T03:05:34;7.32;;;3.60;;
64885;SDS011;51514;52.206;5.114;2023-03-23T03:19:24;6.70;;;3.28;;
64885;SDS011;51514;52.206;5.114;2023-03-23T03:21:54;7.72;;;2.95;;
64885;SDS011;51514;52.206;5.114;2023-03-23T03:24:22;8.32;;;3.17;;
64885;SDS011;51514;52.206;5.114;2023-03-23T03:26:51;6.28;;;3.40;;
64885;SDS011;51514;52.206;5.114;2023-03-23T03:29:20;8.73;;;3.15;;
64885;SDS011;51514;52.206;5.114;2023-03-23T03:31:48;9.30;;;3.63;;
64885;SDS011;51514;52.206;5.114;2023-03-23T03:34:16;8.48;;;3.35;;
64885;SDS011;51514;52.206;5.114;2023-03-23T03:36:42;7.05;;;3.65;;
64885;SDS011;51514;52.206;5.114;2023-03-23T03:39:10;6.85;;;3.28;;
64885;SDS011;51514;52.206;5.114;2023-03-23T03:41:37;8.25;;;3.67;;
64885;SDS011;51514;52.206;5.114;2023-03-23T03:44:07;5.50;;;2.92;;
64885;SDS011;51514;52.206;5.114;2023-03-23T03:46:33;5.93;;;2.63;;
64885;SDS011;51514;52.206;5.114;2023-03-23T03:49:01;6.88;;;3.15;;
64885;SDS011;51514;52.206;5.114;2023-03-23T03:51:27;10.73;;;4.47;;
64885;SDS011;51514;52.206;5.114;2023-03-23T03:53:55;10.13;;;3.60;;
64885;SDS011;51514;52.206;5.114;2023-03-23T03:56:21;9.48;;;3.90;;
64885;SDS011;51514;52.206;5.114;2023-03-23T03:58:47;7.13;;;4.22;;
64885;SDS011;51514;52.206;5.114;2023-03-23T04:01:14;8.68;;;3.95;;
64885;SDS011;51514;52.206;5.114;2023-03-23T04:03:41;10.90;;;4.25;;
64885;SDS011;51514;52.206;5.114;2023-03-23T04:06:07;11.57;;;4.35;;
64885;SDS011;51514;52.206;5.114;2023-03-23T04:08:33;8.63;;;3.97;;
64885;SDS011;51514;52.206;5.114;2023-03-23T04:11:01;8.48;;;4.00;;
64885;SDS011;51514;52.206;5.114;2023-03-23T04:13:27;8.98;;;4.20;;
64885;SDS011;51514;52.206;5.114;2023-03-23T04:15:52;10.50;;;5.32;;
64885;SDS011;51514;52.206;5.114;2023-03-23T04:18:18;8.95;;;3.90;;
64885;SDS011;51514;52.206;5.114;2023-03-23T04:20:44;8.50;;;3.83;;
64885;SDS011;51514;52.206;5.114;2023-03-23T04:23:12;9.02;;;4.05;;
64885;SDS011;51514;52.206;5.114;2023-03-23T04:25:38;10.93;;;3.80;;
64885;SDS011;51514;52.206;5.114;2023-03-23T04:28:05;8.80;;;3.33;;
64885;SDS011;51514;52.206;5.114;2023-03-23T04:30:32;10.82;;;4.47;;
64885;SDS011;51514;52.206;5.114;2023-03-23T04:32:57;8.38;;;2.90;;
64885;SDS011;51514;52.206;5.114;2023-03-23T04:35:25;8.93;;;3.60;;
64885;SDS011;51514;52.206;5.114;2023-03-23T04:37:51;6.75;;;4.00;;
64885;SDS011;51514;52.206;5.114;2023-03-23T04:40:17;11.68;;;3.88;;
64885;SDS011;51514;52.206;5.114;2023-03-23T04:42:42;6.18;;;3.50;;
64885;SDS011;51514;52.206;5.114;2023-03-23T04:45:13;13.82;;;4.53;;
64885;SDS011;51514;52.206;5.114;2023-03-23T04:47:40;11.65;;;3.65;;
64885;SDS011;51514;52.206;5.114;2023-03-23T04:50:10;13.05;;;3.75;;
64885;SDS011;51514;52.206;5.114;2023-03-23T04:52:37;11.40;;;3.80;;
64885;SDS011;51514;52.206;5.114;2023-03-23T04:55:04;6.97;;;3.28;;
64885;SDS011;51514;52.206;5.114;2023-03-23T04:57:31;8.45;;;3.58;;
64885;SDS011;51514;52.206;5.114;2023-03-23T04:59:56;11.68;;;3.70;;
64885;SDS011;51514;52.206;5.114;2023-03-23T05:02:22;13.48;;;3.67;;
64885;SDS011;51514;52.206;5.114;2023-03-23T05:04:47;11.00;;;3.45;;
64885;SDS011;51514;52.206;5.114;2023-03-23T05:07:13;12.60;;;3.55;;
64885;SDS011;51514;52.206;5.114;2023-03-23T05:09:40;11.45;;;3.75;;
64885;SDS011;51514;52.206;5.114;2023-03-23T05:12:06;12.05;;;3.92;;
64885;SDS011;51514;52.206;5.114;2023-03-23T05:14:33;8.93;;;3.55;;
64885;SDS011;51514;52.206;5.114;2023-03-23T05:16:58;12.55;;;4.22;;
64885;SDS011;51514;52.206;5.114;2023-03-23T05:19:24;12.57;;;4.75;;
64885;SDS011;51514;52.206;5.114;2023-03-23T05:21:49;15.50;;;4.10;;
64885;SDS011;51514;52.206;5.114;2023-03-23T05:24:14;12.73;;;4.18;;
64885;SDS011;51514;52.206;5.114;2023-03-23T05:26:40;12.65;;;3.53;;
64885;SDS011;51514;52.206;5.114;2023-03-23T05:29:05;15.02;;;3.78;;
64885;SDS011;51514;52.206;5.114;2023-03-23T05:31:30;13.38;;;4.30;;
64885;SDS011;51514;52.206;5.114;2023-03-23T05:33:57;16.40;;;3.92;;
64885;SDS011;51514;52.206;5.114;2023-03-23T05:36:22;13.90;;;4.22;;
64885;SDS011;51514;52.206;5.114;2023-03-23T05:38:48;13.95;;;4.07;;
64885;SDS011;51514;52.206;5.114;2023-03-23T05:41:15;13.43;;;4.22;;
64885;SDS011;51514;52.206;5.114;2023-03-23T05:43:41;10.30;;;4.72;;
64885;SDS011;51514;52.206;5.114;2023-03-23T05:46:06;14.02;;;4.85;;
64885;SDS011;51514;52.206;5.114;2023-03-23T05:48:32;16.00;;;5.25;;
64885;SDS011;51514;52.206;5.114;2023-03-23T05:50:58;16.15;;;5.43;;
64885;SDS011;51514;52.206;5.114;2023-03-23T05:53:24;18.35;;;6.40;;
64885;SDS011;51514;52.206;5.114;2023-03-23T05:55:49;14.05;;;5.88;;
64885;SDS011;51514;52.206;5.114;2023-03-23T05:58:15;17.67;;;5.78;;
64885;SDS011;51514;52.206;5.114;2023-03-23T06:00:40;18.33;;;5.35;;
64885;SDS011;51514;52.206;5.114;2023-03-23T06:03:06;12.25;;;5.13;;
64885;SDS011;51514;52.206;5.114;2023-03-23T06:05:31;15.68;;;5.38;;
64885;SDS011;51514;52.206;5.114;2023-03-23T06:07:57;19.88;;;5.13;;
64885;SDS011;51514;52.206;5.114;2023-03-23T06:10:24;11.82;;;4.97;;
64885;SDS011;51514;52.206;5.114;2023-03-23T06:12:50;13.02;;;5.20;;
64885;SDS011;51514;52.206;5.114;2023-03-23T06:15:16;17.48;;;4.90;;
64885;SDS011;51514;52.206;5.114;2023-03-23T06:17:42;15.98;;;4.80;;
64885;SDS011;51514;52.206;5.114;2023-03-23T06:20:08;22.35;;;5.10;;
64885;SDS011;51514;52.206;5.114;2023-03-23T06:22:35;15.32;;;5.05;;
64885;SDS011;51514;52.206;5.114;2023-03-23T06:25:03;13.38;;;5.10;;
64885;SDS011;51514;52.206;5.114;2023-03-23T06:27:29;15.43;;;5.30;;
64885;SDS011;51514;52.206;5.114;2023-03-23T06:29:55;12.55;;;4.43;;
64885;SDS011;51514;52.206;5.114;2023-03-23T06:32:21;16.83;;;5.35;;
64885;SDS011;51514;52.206;5.114;2023-03-23T06:34:48;17.10;;;4.95;;
64885;SDS011;51514;52.206;5.114;2023-03-23T06:37:14;21.80;;;5.35;;
64885;SDS011;51514;52.206;5.114;2023-03-23T06:39:40;11.18;;;4.43;;
64885;SDS011;51514;52.206;5.114;2023-03-23T06:42:08;14.20;;;5.00;;
64885;SDS011;51514;52.206;5.114;2023-03-23T06:44:36;15.93;;;5.53;;
64885;SDS011;51514;52.206;5.114;2023-03-23T06:47:01;18.50;;;5.70;;
64885;SDS011;51514;52.206;5.114;2023-03-23T06:49:27;19.15;;;5.28;;
64885;SDS011;51514;52.206;5.114;2023-03-23T06:51:52;13.07;;;5.35;;
64885;SDS011;51514;52.206;5.114;2023-03-23T06:54:20;16.50;;;5.43;;
64885;SDS011;51514;52.206;5.114;2023-03-23T06:56:46;17.17;;;5.55;;
64885;SDS011;51514;52.206;5.114;2023-03-23T06:59:12;21.40;;;6.78;;
64885;SDS011;51514;52.206;5.114;2023-03-23T07:01:37;12.10;;;5.78;;
64885;SDS011;51514;52.206;5.114;2023-03-23T07:04:03;14.45;;;5.50;;
64885;SDS011;51514;52.206;5.114;2023-03-23T07:06:28;16.77;;;5.15;;
64885;SDS011;51514;52.206;5.114;2023-03-23T07:08:54;14.23;;;5.35;;
64885;SDS011;51514;52.206;5.114;2023-03-23T07:11:19;12.68;;;5.75;;
64885;SDS011;51514;52.206;5.114;2023-03-23T07:13:45;17.90;;;5.72;;
64885;SDS011;51514;52.206;5.114;2023-03-23T07:16:11;15.32;;;6.68;;
64885;SDS011;51514;52.206;5.114;2023-03-23T07:18:36;15.13;;;6.00;;
64885;SDS011;51514;52.206;5.114;2023-03-23T07:21:01;19.30;;;6.60;;
64885;SDS011;51514;52.206;5.114;2023-03-23T07:23:28;20.65;;;7.32;;
64885;SDS011;51514;52.206;5.114;2023-03-23T07:25:54;13.45;;;5.57;;
64885;SDS011;51514;52.206;5.114;2023-03-23T07:28:19;17.92;;;5.30;;
64885;SDS011;51514;52.206;5.114;2023-03-23T07:30:45;19.17;;;5.88;;
64885;SDS011;51514;52.206;5.114;2023-03-23T07:33:10;16.05;;;5.65;;
64885;SDS011;51514;52.206;5.114;2023-03-23T07:35:38;15.82;;;5.47;;
64885;SDS011;51514;52.206;5.114;2023-03-23T07:38:04;15.90;;;4.68;;
64885;SDS011;51514;52.206;5.114;2023-03-23T07:40:30;13.60;;;4.55;;
64885;SDS011;51514;52.206;5.114;2023-03-23T07:42:58;10.85;;;4.88;;
64885;SDS011;51514;52.206;5.114;2023-03-23T07:45:24;14.90;;;4.47;;
64885;SDS011;51514;52.206;5.114;2023-03-23T07:47:50;10.68;;;4.57;;
64885;SDS011;51514;52.206;5.114;2023-03-23T07:50:16;14.93;;;4.30;;
64885;SDS011;51514;52.206;5.114;2023-03-23T07:52:42;10.95;;;3.95;;
64885;SDS011;51514;52.206;5.114;2023-03-23T07:55:08;15.10;;;4.75;;
64885;SDS011;51514;52.206;5.114;2023-03-23T07:57:42;12.60;;;4.47;;
64885;SDS011;51514;52.206;5.114;2023-03-23T08:00:12;10.50;;;4.45;;
64885;SDS011;51514;52.206;5.114;2023-03-23T08:02:47;13.82;;;3.80;;
64885;SDS011;51514;52.206;5.114;2023-03-23T08:05:14;16.23;;;4.28;;
64885;SDS011;51514;52.206;5.114;2023-03-23T08:07:40;16.73;;;4.35;;
64885;SDS011;51514;52.206;5.114;2023-03-23T08:10:07;13.65;;;4.30;;
64885;SDS011;51514;52.206;5.114;2023-03-23T08:12:38;15.57;;;4.15;;
64885;SDS011;51514;52.206;5.114;2023-03-23T08:15:06;15.90;;;3.67;;
64885;SDS011;51514;52.206;5.114;2023-03-23T08:17:32;11.18;;;3.45;;
64885;SDS011;51514;52.206;5.114;2023-03-23T08:19:59;11.32;;;3.35;;
64885;SDS011;51514;52.206;5.114;2023-03-23T08:22:25;13.43;;;3.78;;
64885;SDS011;51514;52.206;5.114;2023-03-23T08:24:51;12.07;;;4.47;;
64885;SDS011;51514;52.206;5.114;2023-03-23T08:27:17;13.60;;;4.30;;
64885;SDS011;51514;52.206;5.114;2023-03-23T08:29:46;15.48;;;4.00;;
64885;SDS011;51514;52.206;5.114;2023-03-23T08:32:12;14.45;;;3.67;;
64885;SDS011;51514;52.206;5.114;2023-03-23T08:34:37;13.32;;;4.07;;
64885;SDS011;51514;52.206;5.114;2023-03-23T08:37:03;15.70;;;4.32;;
64885;SDS011;51514;52.206;5.114;2023-03-23T08:39:29;12.65;;;4.88;;
64885;SDS011;51514;52.206;5.114;2023-03-23T08:41:55;13.75;;;5.85;;
64885;SDS011;51514;52.206;5.114;2023-03-23T08:44:21;13.48;;;4.40;;
64885;SDS011;51514;52.206;5.114;2023-03-23T08:46:46;12.23;;;4.35;;
64885;SDS011;51514;52.206;5.114;2023-03-23T08:49:11;10.77;;;4.03;;
64885;SDS011;51514;52.206;5.114;2023-03-23T08:51:37;8.73;;;3.85;;
64885;SDS011;51514;52.206;5.114;2023-03-23T08:54:02;14.32;;;4.53;;
64885;SDS011;51514;52.206;5.114;2023-03-23T08:56:28;8.55;;;3.70;;
64885;SDS011;51514;52.206;5.114;2023-03-23T08:58:53;14.18;;;4.43;;
64885;SDS011;51514;52.206;5.114;2023-03-23T09:01:19;14.80;;;4.25;;
64885;SDS011;51514;52.206;5.114;2023-03-23T09:03:45;10.30;;;4.28;;
64885;SDS011;51514;52.206;5.114;2023-03-23T09:06:10;10.57;;;3.85;;
64885;SDS011;51514;52.206;5.114;2023-03-23T09:08:37;11.85;;;4.60;;
64885;SDS011;51514;52.206;5.114;2023-03-23T09:11:03;13.80;;;4.80;;
64885;SDS011;51514;52.206;5.114;2023-03-23T09:13:34;14.27;;;5.03;;
64885;SDS011;51514;52.206;5.114;2023-03-23T09:16:00;10.13;;;4.75;;
64885;SDS011;51514;52.206;5.114;2023-03-23T09:18:26;15.10;;;4.47;;
64885;SDS011;51514;52.206;5.114;2023-03-23T09:20:52;14.00;;;5.22;;
64885;SDS011;51514;52.206;5.114;2023-03-23T09:23:19;13.30;;;4.47;;
64885;SDS011;51514;52.206;5.114;2023-03-23T09:25:45;15.23;;;4.57;;
64885;SDS011;51514;52.206;5.114;2023-03-23T09:28:11;11.70;;;4.32;;
64885;SDS011;51514;52.206;5.114;2023-03-23T09:30:37;13.38;;;4.43;;
64885;SDS011;51514;52.206;5.114;2023-03-23T09:33:04;13.48;;;4.50;;
64885;SDS011;51514;52.206;5.114;2023-03-23T09:35:31;7.97;;;4.10;;
64885;SDS011;51514;52.206;5.114;2023-03-23T09:37:59;13.20;;;5.35;;
64885;SDS011;51514;52.206;5.114;2023-03-23T09:40:30;11.43;;;4.97;;
64885;SDS011;51514;52.206;5.114;2023-03-23T09:48:40;12.68;;;5.45;;
64885;SDS011;51514;52.206;5.114;2023-03-23T09:54:04;16.17;;;5.18;;
64885;SDS011;51514;52.206;5.114;2023-03-23T09:56:35;16.55;;;4.75;;
64885;SDS011;51514;52.206;5.114;2023-03-23T09:59:10;12.63;;;5.30;;
64885;SDS011;51514;52.206;5.114;2023-03-23T10:01:45;12.90;;;4.20;;
64885;SDS011;51514;52.206;5.114;2023-03-23T10:04:32;14.95;;;4.70;;
64885;SDS011;51514;52.206;5.114;2023-03-23T10:07:10;17.10;;;4.70;;
64885;SDS011;51514;52.206;5.114;2023-03-23T10:09:38;17.67;;;4.43;;
64885;SDS011;51514;52.206;5.114;2023-03-23T10:17:29;16.42;;;4.40;;
64885;SDS011;51514;52.206;5.114;2023-03-23T10:25:38;10.52;;;3.35;;
64885;SDS011;51514;52.206;5.114;2023-03-23T10:28:12;18.48;;;4.60;;
64885;SDS011;51514;52.206;5.114;2023-03-23T10:30:42;11.60;;;4.00;;
64885;SDS011;51514;52.206;5.114;2023-03-23T10:35:47;16.40;;;4.15;;
64885;SDS011;51514;52.206;5.114;2023-03-23T10:38:25;12.73;;;3.90;;
64885;SDS011;51514;52.206;5.114;2023-03-23T10:41:31;13.70;;;3.50;;
64885;SDS011;51514;52.206;5.114;2023-03-23T10:43:50;14.00;;;3.72;;
64885;SDS011;51514;52.206;5.114;2023-03-23T10:49:02;13.93;;;4.50;;
64885;SDS011;51514;52.206;5.114;2023-03-23T10:51:36;14.65;;;4.00;;
64885;SDS011;51514;52.206;5.114;2023-03-23T10:54:04;18.42;;;3.92;;
64885;SDS011;51514;52.206;5.114;2023-03-23T10:56:35;15.55;;;3.95;;
64885;SDS011;51514;52.206;5.114;2023-03-23T10:59:12;13.38;;;4.13;;
64885;SDS011;51514;52.206;5.114;2023-03-23T11:01:52;17.15;;;4.50;;
64885;SDS011;51514;52.206;5.114;2023-03-23T11:04:19;14.48;;;3.85;;
64885;SDS011;51514;52.206;5.114;2023-03-23T11:06:47;15.98;;;4.60;;
64885;SDS011;51514;52.206;5.114;2023-03-23T11:11:43;15.75;;;4.50;;
64885;SDS011;51514;52.206;5.114;2023-03-23T11:16:51;16.08;;;3.90;;
64885;SDS011;51514;52.206;5.114;2023-03-23T11:19:23;16.42;;;3.90;;
64885;SDS011;51514;52.206;5.114;2023-03-23T11:21:52;11.88;;;3.83;;
64885;SDS011;51514;52.206;5.114;2023-03-23T11:24:21;11.60;;;3.97;;
64885;SDS011;51514;52.206;5.114;2023-03-23T11:26:48;17.48;;;5.13;;
64885;SDS011;51514;52.206;5.114;2023-03-23T11:29:16;17.40;;;4.05;;
64885;SDS011;51514;52.206;5.114;2023-03-23T11:31:48;22.20;;;4.45;;
64885;SDS011;51514;52.206;5.114;2023-03-23T11:36:52;12.88;;;4.38;;
64885;SDS011;51514;52.206;5.114;2023-03-23T11:39:25;13.95;;;4.63;;
64885;SDS011;51514;52.206;5.114;2023-03-23T11:41:51;13.90;;;4.38;;
64885;SDS011;51514;52.206;5.114;2023-03-23T11:44:17;14.63;;;4.50;;
64885;SDS011;51514;52.206;5.114;2023-03-23T11:49:38;13.70;;;4.25;;
64885;SDS011;51514;52.206;5.114;2023-03-23T11:52:13;18.88;;;4.38;;
64885;SDS011;51514;52.206;5.114;2023-03-23T11:54:47;16.48;;;4.55;;
64885;SDS011;51514;52.206;5.114;2023-03-23T11:57:19;12.95;;;3.63;;
64885;SDS011;51514;52.206;5.114;2023-03-23T11:59:45;13.02;;;4.47;;
64885;SDS011;51514;52.206;5.114;2023-03-23T12:08:32;16.45;;;4.00;;
64885;SDS011;51514;52.206;5.114;2023-03-23T12:14:11;17.70;;;5.00;;
64885;SDS011;51514;52.206;5.114;2023-03-23T12:33:48;9.15;;;3.38;;
64885;SDS011;51514;52.206;5.114;2023-03-23T12:44:48;11.07;;;2.97;;
64885;SDS011;51514;52.206;5.114;2023-03-23T12:47:20;12.23;;;3.75;;
64885;SDS011;51514;52.206;5.114;2023-03-23T12:53:08;11.60;;;3.92;;
64885;SDS011;51514;52.206;5.114;2023-03-23T12:58:28;12.10;;;3.20;;
64885;SDS011;51514;52.206;5.114;2023-03-23T13:01:04;15.57;;;4.05;;
64885;SDS011;51514;52.206;5.114;2023-03-23T13:03:46;13.38;;;4.05;;
64885;SDS011;51514;52.206;5.114;2023-03-23T13:06:19;13.13;;;3.35;;
64885;SDS011;51514;52.206;5.114;2023-03-23T13:10:04;12.07;;;3.60;;
64885;SDS011;51514;52.206;5.114;2023-03-23T13:12:19;9.95;;;2.97;;
64885;SDS011;51514;52.206;5.114;2023-03-23T13:17:22;13.05;;;4.18;;
64885;SDS011;51514;52.206;5.114;2023-03-23T13:19:59;15.60;;;3.90;;
64885;SDS011;51514;52.206;5.114;2023-03-23T13:22:53;14.15;;;3.47;;
64885;SDS011;51514;52.206;5.114;2023-03-23T13:25:29;12.07;;;3.22;;
64885;SDS011;51514;52.206;5.114;2023-03-23T13:28:15;11.02;;;3.63;;
64885;SDS011;51514;52.206;5.114;2023-03-23T13:31:20;15.20;;;3.70;;
64885;SDS011;51514;52.206;5.114;2023-03-23T13:33:58;14.45;;;3.63;;
64885;SDS011;51514;52.206;5.114;2023-03-23T13:36:37;14.85;;;3.70;;
64885;SDS011;51514;52.206;5.114;2023-03-23T13:39:24;12.80;;;4.05;;
64885;SDS011;51514;52.206;5.114;2023-03-23T13:49:58;9.93;;;2.90;;
64885;SDS011;51514;52.206;5.114;2023-03-23T13:57:51;12.55;;;3.28;;
64885;SDS011;51514;52.206;5.114;2023-03-23T14:05:38;16.58;;;5.03;;
64885;SDS011;51514;52.206;5.114;2023-03-23T14:10:34;13.70;;;3.65;;
64885;SDS011;51514;52.206;5.114;2023-03-23T14:16:04;18.10;;;4.82;;
64885;SDS011;51514;52.206;5.114;2023-03-23T14:18:40;13.68;;;4.40;;
64885;SDS011;51514;52.206;5.114;2023-03-23T14:21:13;13.63;;;3.63;;
64885;SDS011;51514;52.206;5.114;2023-03-23T14:23:40;11.70;;;3.58;;
64885;SDS011;51514;52.206;5.114;2023-03-23T14:26:09;14.27;;;4.00;;
64885;SDS011;51514;52.206;5.114;2023-03-23T14:28:45;15.30;;;4.00;;
64885;SDS011;51514;52.206;5.114;2023-03-23T14:31:17;9.95;;;3.60;;
64885;SDS011;51514;52.206;5.114;2023-03-23T14:33:45;13.43;;;3.70;;
64885;SDS011;51514;52.206;5.114;2023-03-23T14:36:10;12.55;;;3.67;;
64885;SDS011;51514;52.206;5.114;2023-03-23T14:38:36;14.23;;;4.00;;
64885;SDS011;51514;52.206;5.114;2023-03-23T14:41:03;11.05;;;3.70;;
64885;SDS011;51514;52.206;5.114;2023-03-23T14:43:30;13.68;;;3.75;;
64885;SDS011;51514;52.206;5.114;2023-03-23T14:45:59;10.85;;;3.42;;
64885;SDS011;51514;52.206;5.114;2023-03-23T14:48:26;15.80;;;3.90;;
64885;SDS011;51514;52.206;5.114;2023-03-23T14:50:59;12.40;;;3.90;;
64885;SDS011;51514;52.206;5.114;2023-03-23T14:53:39;16.85;;;4.30;;
64885;SDS011;51514;52.206;5.114;2023-03-23T14:56:15;13.25;;;3.47;;
64885;SDS011;51514;52.206;5.114;2023-03-23T14:58:51;13.95;;;3.88;;
64885;SDS011;51514;52.206;5.114;2023-03-23T15:01:27;12.80;;;3.83;;
64885;SDS011;51514;52.206;5.114;2023-03-23T15:04:02;13.05;;;3.90;;
64885;SDS011;51514;52.206;5.114;2023-03-23T15:06:32;15.98;;;4.03;;
64885;SDS011;51514;52.206;5.114;2023-03-23T15:09:01;10.35;;;3.33;;
64885;SDS011;51514;52.206;5.114;2023-03-23T15:14:02;14.73;;;3.55;;
64885;SDS011;51514;52.206;5.114;2023-03-23T15:16:35;15.27;;;3.90;;
64885;SDS011;51514;52.206;5.114;2023-03-23T15:19:04;10.35;;;3.38;;
64885;SDS011;51514;52.206;5.114;2023-03-23T15:21:45;14.45;;;3.55;;
64885;SDS011;51514;52.206;5.114;2023-03-23T15:24:46;13.90;;;4.55;;
64885;SDS011;51514;52.206;5.114;2023-03-23T15:29:31;13.20;;;3.33;;
64885;SDS011;51514;52.206;5.114;2023-03-23T15:31:56;12.25;;;3.78;;
64885;SDS011;51514;52.206;5.114;2023-03-23T15:34:28;16.40;;;3.70;;
64885;SDS011;51514;52.206;5.114;2023-03-23T15:37:03;11.95;;;3.72;;
64885;SDS011;51514;52.206;5.114;2023-03-23T15:39:30;12.95;;;3.40;;
64885;SDS011;51514;52.206;5.114;2023-03-23T15:41:57;11.57;;;3.50;;
64885;SDS011;51514;52.206;5.114;2023-03-23T15:44:28;17.95;;;3.97;;
64885;SDS011;51514;52.206;5.114;2023-03-23T15:47:12;15.02;;;4.15;;
64885;SDS011;51514;52.206;5.114;2023-03-23T15:49:43;12.48;;;3.28;;
64885;SDS011;51514;52.206;5.114;2023-03-23T15:52:10;13.32;;;3.63;;
64885;SDS011;51514;52.206;5.114;2023-03-23T15:54:37;12.52;;;3.63;;
64885;SDS011;51514;52.206;5.114;2023-03-23T15:57:03;16.90;;;3.85;;
64885;SDS011;51514;52.206;5.114;2023-03-23T15:59:28;16.17;;;4.45;;
64885;SDS011;51514;52.206;5.114;2023-03-23T16:01:54;14.55;;;5.07;;
64885;SDS011;51514;52.206;5.114;2023-03-23T16:04:19;10.45;;;3.42;;
64885;SDS011;51514;52.206;5.114;2023-03-23T16:06:46;11.98;;;3.50;;
64885;SDS011;51514;52.206;5.114;2023-03-23T16:09:13;12.27;;;3.92;;
64885;SDS011;51514;52.206;5.114;2023-03-23T16:11:40;16.95;;;3.80;;
64885;SDS011;51514;52.206;5.114;2023-03-23T16:14:07;11.52;;;4.47;;
64885;SDS011;51514;52.206;5.114;2023-03-23T16:16:34;11.88;;;3.63;;
64885;SDS011;51514;52.206;5.114;2023-03-23T16:19:02;10.13;;;3.25;;
64885;SDS011;51514;52.206;5.114;2023-03-23T16:21:27;13.75;;;3.85;;
64885;SDS011;51514;52.206;5.114;2023-03-23T16:23:52;14.57;;;4.00;;
64885;SDS011;51514;52.206;5.114;2023-03-23T16:26:18;11.68;;;3.65;;
64885;SDS011;51514;52.206;5.114;2023-03-23T16:28:43;11.75;;;3.97;;
64885;SDS011;51514;52.206;5.114;2023-03-23T16:31:09;15.82;;;3.83;;
64885;SDS011;51514;52.206;5.114;2023-03-23T16:33:35;16.95;;;3.78;;
64885;SDS011;51514;52.206;5.114;2023-03-23T16:36:00;11.35;;;3.78;;
64885;SDS011;51514;52.206;5.114;2023-03-23T16:38:26;14.48;;;3.65;;
64885;SDS011;51514;52.206;5.114;2023-03-23T16:40:51;17.65;;;3.88;;
64885;SDS011;51514;52.206;5.114;2023-03-23T16:43:17;8.07;;;3.10;;
64885;SDS011;51514;52.206;5.114;2023-03-23T16:45:43;13.80;;;3.90;;
64885;SDS011;51514;52.206;5.114;2023-03-23T16:48:10;9.25;;;3.50;;
64885;SDS011;51514;52.206;5.114;2023-03-23T16:50:37;17.25;;;3.33;;
64885;SDS011;51514;52.206;5.114;2023-03-23T16:53:03;13.25;;;4.25;;
64885;SDS011;51514;52.206;5.114;2023-03-23T16:55:30;10.75;;;3.70;;
64885;SDS011;51514;52.206;5.114;2023-03-23T16:57:56;13.88;;;3.67;;